createdAt,value
2018-11-27T00:00:28.979Z,81.30
2018-11-27T00:03:09.878Z,81.10
2018-11-27T00:05:51.544Z,81.30
2018-11-27T00:08:33.337Z,82.10
2018-11-27T00:11:14.758Z,81.50
2018-11-27T00:13:56.105Z,81.60
2018-11-27T00:16:37.593Z,81.90
2018-11-27T00:19:19.187Z,81.60
2018-11-27T00:22:00.871Z,82.70
2018-11-27T00:24:42.359Z,81.20
2018-11-27T00:27:23.743Z,81.90
2018-11-27T00:30:05.457Z,81.80
2018-11-27T00:32:47.225Z,82.20
2018-11-27T00:35:28.916Z,83.00
2018-11-27T00:38:10.405Z,82.60
2018-11-27T00:40:52.505Z,82.90
2018-11-27T00:43:33.682Z,82.70
2018-11-27T00:46:15.194Z,82.80
2018-11-27T00:48:56.862Z,82.70
2018-11-27T00:51:38.861Z,82.70
2018-11-27T00:54:20.094Z,82.20
2018-11-27T00:57:01.734Z,82.60
2018-11-27T00:59:43.317Z,82.50
2018-11-27T01:02:25.008Z,82.60
2018-11-27T01:05:06.495Z,82.70
2018-11-27T01:07:48.391Z,82.30
2018-11-27T01:10:29.980Z,81.90
2018-11-27T01:13:11.488Z,81.60
2018-11-27T01:15:53.158Z,81.70
2018-11-27T01:18:35.096Z,82.10
2018-11-27T01:21:16.440Z,80.70
2018-11-27T01:23:58.030Z,80.80
2018-11-27T01:26:39.858Z,80.60
2018-11-27T01:29:21.368Z,81.50
2018-11-27T01:32:02.894Z,81.60
2018-11-27T01:34:44.483Z,81.40
2018-11-27T01:37:26.174Z,81.30
2018-11-27T01:40:08.006Z,81.10
2018-11-27T01:42:49.373Z,80.20
2018-11-27T01:45:31.044Z,79.70
2018-11-27T01:48:13.001Z,79.70
2018-11-27T01:50:54.630Z,80.10
2018-11-27T01:53:36.143Z,79.80
2018-11-27T01:56:17.626Z,80.20
2018-11-27T01:58:59.199Z,80.50
2018-11-27T02:01:41.945Z,81.00
2018-11-27T02:04:24.723Z,82.60
2018-11-27T02:07:06.313Z,84.60
2018-11-27T02:09:47.901Z,85.00
2018-11-27T02:12:29.695Z,85.50
2018-11-27T02:15:11.386Z,86.20
2018-11-27T02:17:52.975Z,87.10
2018-11-27T02:20:34.462Z,88.20
2018-11-27T02:23:16.394Z,87.30
2018-11-27T02:25:57.743Z,87.40
2018-11-27T02:28:39.229Z,88.10
2018-11-27T02:31:20.921Z,87.80
2018-11-27T02:34:02.734Z,88.10
2018-11-27T02:36:45.353Z,88.70
2018-11-27T02:39:26.914Z,88.30
2018-11-27T02:42:08.502Z,88.90
2018-11-27T02:44:49.995Z,88.60
2018-11-27T02:47:32.707Z,88.10
2018-11-27T02:50:14.193Z,88.70
2018-11-27T02:52:55.882Z,89.00
2018-11-27T02:55:37.266Z,89.50
2018-11-27T02:58:18.774Z,90.00
2018-11-27T03:01:00.544Z,89.10
2018-11-27T03:03:41.930Z,89.20
2018-11-27T03:06:23.723Z,89.50
2018-11-27T03:09:05.106Z,90.00
2018-11-27T03:11:46.800Z,90.10
2018-11-27T03:14:28.410Z,89.60
2018-11-27T03:17:09.975Z,89.70
2018-11-27T03:19:51.666Z,89.50
2018-11-27T03:22:33.460Z,89.10
2018-11-27T03:25:15.053Z,88.00
2018-11-27T03:27:56.653Z,88.00
2018-11-27T03:30:38.342Z,87.80
2018-11-27T03:33:19.821Z,88.40
2018-11-27T03:36:01.301Z,88.20
2018-11-27T03:38:42.792Z,88.10
2018-11-27T03:41:24.582Z,88.80
2018-11-27T03:44:06.102Z,88.30
2018-11-27T03:46:47.657Z,88.90
2018-11-27T03:49:29.350Z,89.20
2018-11-27T03:52:10.937Z,90.10
2018-11-27T03:54:52.526Z,89.70
2018-11-27T03:57:34.143Z,89.30
2018-11-27T04:00:15.707Z,89.10
2018-11-27T04:02:58.243Z,88.90
2018-11-27T04:05:39.622Z,89.10
2018-11-27T04:08:21.628Z,89.20
2018-11-27T04:11:03.287Z,89.40
2018-11-27T04:13:44.978Z,90.00
2018-11-27T04:16:26.489Z,88.80
2018-11-27T04:19:08.260Z,88.70
2018-11-27T04:21:49.948Z,89.50
2018-11-27T04:24:31.440Z,88.90
2018-11-27T04:27:13.027Z,89.20
2018-11-27T04:29:54.637Z,89.00
2018-11-27T04:32:36.304Z,88.40
2018-11-27T04:35:17.899Z,88.30
2018-11-27T04:37:59.664Z,88.30
2018-11-27T04:40:40.969Z,88.10
2018-11-27T04:43:22.659Z,88.00
2018-11-27T04:46:04.351Z,88.20
2018-11-27T04:48:46.553Z,88.70
2018-11-27T04:51:27.531Z,88.30
2018-11-27T04:54:09.225Z,87.70
2018-11-27T04:56:51.934Z,88.10
2018-11-27T04:59:33.423Z,87.80
2018-11-27T05:02:14.906Z,88.00
2018-11-27T05:04:56.430Z,87.80
2018-11-27T05:07:38.110Z,87.10
2018-11-27T05:10:24.612Z,86.10
2018-11-27T05:13:06.279Z,84.90
2018-11-27T05:15:48.175Z,83.30
2018-11-27T05:18:29.681Z,83.50
2018-11-27T05:21:11.455Z,83.30
2018-11-27T05:23:52.940Z,82.20
2018-11-27T05:26:34.534Z,82.10
2018-11-27T05:29:16.425Z,81.60
2018-11-27T05:31:57.708Z,80.70
2018-11-27T05:34:39.120Z,79.60
2018-11-27T05:37:20.684Z,79.20
2018-11-27T05:40:02.578Z,78.80
2018-11-27T05:42:44.305Z,78.60
2018-11-27T05:45:25.994Z,77.30
2018-11-27T05:48:07.549Z,77.70
2018-11-27T05:50:49.137Z,74.90
2018-11-27T05:53:31.035Z,74.50
2018-11-27T05:56:12.108Z,74.20
2018-11-27T05:58:53.799Z,73.20
2018-11-27T06:01:35.215Z,72.60
2018-11-27T06:04:16.704Z,72.30
2018-11-27T06:06:58.462Z,72.40
2018-11-27T06:09:40.256Z,73.10
2018-11-27T06:12:21.847Z,73.30
2018-11-27T06:15:03.359Z,72.40
2018-11-27T06:17:45.023Z,71.90
2018-11-27T06:20:27.021Z,72.00
2018-11-27T06:23:08.815Z,71.90
2018-11-27T06:25:50.199Z,70.70
2018-11-27T06:28:31.583Z,70.40
2018-11-27T06:31:13.480Z,69.60
2018-11-27T06:33:55.086Z,69.50
2018-11-27T06:36:36.759Z,69.60
2018-11-27T06:39:18.399Z,69.80
2018-11-27T06:41:59.659Z,70.00
2018-11-27T06:44:41.320Z,70.10
2018-11-27T06:47:23.115Z,70.60
2018-11-27T06:50:05.214Z,70.10
2018-11-27T06:52:46.296Z,69.00
2018-11-27T06:55:28.005Z,68.80
2018-11-27T06:58:09.492Z,68.60
2018-11-27T07:00:51.515Z,68.70
2018-11-27T07:03:33.157Z,68.50
2018-11-27T07:06:15.018Z,68.50
2018-11-27T07:08:56.658Z,69.00
2018-11-27T07:11:38.249Z,69.20
2018-11-27T07:14:19.820Z,69.00
2018-11-27T07:17:01.614Z,67.70
2018-11-27T07:19:43.140Z,65.60
2018-11-27T07:22:24.484Z,64.50
2018-11-27T07:25:05.866Z,63.00
2018-11-27T07:27:47.558Z,61.10
2018-11-27T07:30:29.175Z,60.00
2018-11-27T07:33:10.860Z,59.20
2018-11-27T07:35:52.426Z,57.70
2018-11-27T07:38:34.016Z,56.70
2018-11-27T07:41:15.707Z,56.20
2018-11-27T07:43:57.295Z,55.30
2018-11-27T07:46:38.807Z,55.30
2018-11-27T07:49:20.475Z,54.30
2018-11-27T07:52:02.574Z,53.50
2018-11-27T07:54:44.061Z,52.00
2018-11-27T07:57:25.185Z,52.20
2018-11-27T08:00:06.829Z,51.00
2018-11-27T08:02:48.213Z,49.50
2018-11-27T08:05:29.820Z,48.10
2018-11-27T08:08:11.494Z,47.30
2018-11-27T08:10:52.876Z,46.00
2018-11-27T08:13:34.585Z,44.80
2018-11-27T08:35:03.182Z,38.00
2018-11-27T08:37:44.770Z,36.60
2018-11-27T08:40:26.359Z,38.40
2018-11-27T08:43:07.746Z,37.50
2018-11-27T08:45:49.357Z,36.60
2018-11-27T08:48:31.842Z,35.80
2018-11-27T08:51:13.636Z,36.30
2018-11-27T08:53:55.327Z,35.50
2018-11-27T08:56:36.814Z,35.70
2018-11-27T08:59:18.401Z,34.10
2018-11-27T09:01:59.889Z,33.20
2018-11-27T09:04:41.500Z,31.90
2018-11-27T09:07:23.271Z,31.00
2018-11-27T09:10:05.270Z,29.80
2018-11-27T09:12:46.346Z,29.00
2018-11-27T09:15:27.664Z,29.40
2018-11-27T09:18:09.907Z,28.30
2018-11-27T09:20:50.908Z,28.80
2018-11-27T09:23:32.699Z,28.60
2018-11-27T09:26:14.000Z,28.00
2018-11-27T09:28:55.880Z,28.30
2018-11-27T09:31:37.467Z,29.10
2018-11-27T09:34:19.315Z,29.00
2018-11-27T09:37:00.749Z,29.10
2018-11-27T09:39:42.239Z,29.60
2018-11-27T09:42:23.824Z,29.30
2018-11-27T09:45:05.411Z,28.80
2018-11-27T09:47:47.107Z,29.40
2018-11-27T09:50:28.490Z,29.30
2018-11-27T09:53:10.512Z,29.00
2018-11-27T09:55:51.665Z,29.10
2018-11-27T09:58:33.563Z,28.20
2018-11-27T10:01:15.354Z,29.10
2018-11-27T10:03:57.470Z,27.90
2018-11-27T10:06:38.736Z,28.20
2018-11-27T10:09:20.425Z,27.60
2018-11-27T10:12:02.017Z,29.10
2018-11-27T10:14:43.604Z,29.20
2018-11-27T10:17:25.092Z,28.90
2018-11-27T10:20:06.788Z,29.00
2018-11-27T10:22:48.473Z,28.20
2018-11-27T10:25:30.195Z,28.40
2018-11-27T10:28:11.754Z,28.00
2018-11-27T10:30:53.445Z,27.60
2018-11-27T10:33:34.932Z,27.20
2018-11-27T10:36:16.620Z,28.30
2018-11-27T10:39:00.997Z,28.80
2018-11-27T10:41:39.408Z,27.90
2018-11-27T10:44:20.876Z,26.10
2018-11-27T10:47:02.671Z,26.50
2018-11-27T10:49:43.955Z,26.80
2018-11-27T10:52:25.582Z,27.80
2018-11-27T10:55:07.030Z,28.10
2018-11-27T10:57:48.514Z,27.50
2018-11-27T11:00:36.041Z,27.80
2018-11-27T11:06:06.490Z,29.40
2018-11-27T11:08:48.118Z,30.80
2018-11-27T11:11:29.600Z,31.60
2018-11-27T11:14:10.372Z,33.20
2018-11-27T11:16:51.316Z,35.10
2018-11-27T11:19:33.270Z,37.70
2018-11-27T11:22:14.178Z,39.90
2018-11-27T11:24:55.869Z,40.40
2018-11-27T11:27:37.478Z,41.70
2018-11-27T11:30:18.950Z,43.70
2018-11-27T11:33:00.456Z,45.00
2018-11-27T11:35:42.041Z,45.50
2018-11-27T11:38:23.424Z,46.60
2018-11-27T11:41:05.011Z,45.40
2018-11-27T11:43:46.888Z,45.10
2018-11-27T11:46:28.374Z,46.80
2018-11-27T11:49:10.168Z,48.70
2018-11-27T11:51:51.657Z,47.40
2018-11-27T11:54:33.549Z,47.90
2018-11-27T11:57:14.935Z,47.20
2018-11-27T11:59:57.033Z,46.50
2018-11-27T12:02:38.931Z,48.60
2018-11-27T12:05:24.867Z,48.50
2018-11-27T12:08:01.903Z,48.60
2018-11-27T12:10:44.029Z,48.40
2018-11-27T12:13:25.287Z,48.40
2018-11-27T12:16:06.690Z,48.70
2018-11-27T12:18:48.257Z,49.50
2018-11-27T12:21:30.666Z,49.20
2018-11-27T12:24:12.561Z,50.60
2018-11-27T12:26:54.255Z,49.30
2018-11-27T12:29:35.638Z,48.90
2018-11-27T12:32:19.385Z,49.30
2018-11-27T12:35:01.170Z,50.00
2018-11-27T12:37:42.964Z,48.80
2018-11-27T12:40:24.779Z,45.20
2018-11-27T12:43:05.732Z,45.40
2018-11-27T12:45:47.455Z,44.30
2018-11-27T12:48:29.114Z,44.40
2018-11-27T12:51:10.982Z,43.60
2018-11-27T12:53:52.396Z,44.60
2018-11-27T12:56:33.786Z,44.80
2018-11-27T12:59:15.365Z,44.80
2018-11-27T13:01:56.956Z,42.70
2018-11-27T13:04:38.645Z,39.90
2018-11-27T13:07:20.030Z,39.20
2018-11-27T13:10:02.935Z,40.20
2018-11-27T13:12:43.540Z,42.30
2018-11-27T13:15:25.207Z,44.70
2018-11-27T13:18:07.023Z,46.40
2018-11-27T13:20:48.411Z,48.60
2018-11-27T13:23:29.974Z,50.10
2018-11-27T13:26:11.460Z,50.10
2018-11-27T13:28:53.153Z,52.30
2018-11-27T13:31:34.968Z,52.50
2018-11-27T13:34:16.634Z,51.80
2018-11-27T13:36:57.990Z,52.70
2018-11-27T13:39:39.719Z,52.20
2018-11-27T13:42:21.606Z,51.70
2018-11-27T13:45:03.215Z,52.60
2018-11-27T13:47:44.888Z,53.90
2018-11-27T13:50:26.678Z,54.20
2018-11-27T13:53:08.298Z,55.70
2018-11-27T13:55:49.650Z,55.30
2018-11-27T13:58:31.550Z,55.70
2018-11-27T14:01:13.271Z,55.70
2018-11-27T14:03:55.240Z,58.00
2018-11-27T14:06:36.415Z,59.20
2018-11-27T14:09:18.128Z,60.70
2018-11-27T14:11:59.879Z,60.20
2018-11-27T14:14:41.183Z,59.30
2018-11-27T14:17:22.872Z,60.80
2018-11-27T14:20:04.565Z,60.00
2018-11-27T14:22:46.059Z,60.40
2018-11-27T14:25:27.536Z,60.80
2018-11-27T14:28:09.396Z,64.80
2018-11-27T14:30:50.818Z,65.70
2018-11-27T14:33:32.507Z,65.00
2018-11-27T14:36:14.096Z,65.10
2018-11-27T14:38:55.605Z,65.70
2018-11-27T14:41:37.658Z,65.90
2018-11-27T14:44:20.009Z,65.50
2018-11-27T14:47:01.109Z,66.70
2018-11-27T14:49:42.509Z,64.50
2018-11-27T14:52:24.130Z,64.70
2018-11-27T14:55:06.117Z,64.20
2018-11-27T14:57:47.139Z,64.80
2018-11-27T15:00:29.034Z,64.70
2018-11-27T15:03:11.418Z,62.30
2018-11-27T15:05:53.655Z,62.60
2018-11-27T15:08:34.799Z,62.10
2018-11-27T15:11:16.286Z,61.70
2018-11-27T15:13:58.080Z,62.10
2018-11-27T15:16:40.321Z,66.00
2018-11-27T15:19:21.259Z,66.60
2018-11-27T15:22:02.952Z,67.60
2018-11-27T15:24:44.593Z,68.80
2018-11-27T15:27:26.126Z,69.00
2018-11-27T15:30:07.925Z,69.50
2018-11-27T15:32:49.100Z,70.60
2018-11-27T15:35:30.591Z,71.50
2018-11-27T15:38:12.381Z,71.70
2018-11-27T15:40:53.969Z,71.80
2018-11-27T15:43:35.455Z,73.10
2018-11-27T15:46:17.249Z,73.20
2018-11-27T15:51:46.595Z,74.50
2018-11-27T15:54:28.162Z,75.00
2018-11-27T15:57:10.466Z,76.30
2018-11-27T15:59:51.541Z,76.30
2018-11-27T16:02:33.130Z,76.90
2018-11-27T16:05:14.719Z,76.80
2018-11-27T16:07:56.945Z,77.70
2018-11-27T16:10:38.919Z,78.80
2018-11-27T16:13:20.634Z,79.20
2018-11-27T16:16:02.200Z,79.80
2018-11-27T16:18:43.892Z,80.20
2018-11-27T16:21:25.479Z,81.60
2018-11-27T16:24:07.174Z,82.20
2018-11-27T16:26:48.968Z,82.40
2018-11-27T16:29:30.657Z,82.30
2018-11-27T16:32:12.529Z,82.30
2018-11-27T16:34:54.140Z,83.10
2018-11-27T16:37:35.731Z,84.20
2018-11-27T16:40:17.318Z,84.70
2018-11-27T16:42:59.112Z,83.70
2018-11-27T16:45:40.597Z,84.80
2018-11-27T16:48:22.291Z,84.80
2018-11-27T16:51:04.288Z,85.00
2018-11-27T16:53:45.703Z,85.30
2018-11-27T16:56:27.371Z,85.50
2018-11-27T16:59:08.869Z,85.60
2018-11-27T17:01:50.774Z,85.70
2018-11-27T17:04:32.129Z,85.90
2018-11-27T17:07:13.745Z,86.20
2018-11-27T17:09:54.592Z,86.20
2018-11-27T17:12:36.286Z,86.10
2018-11-27T17:15:17.584Z,86.30
2018-11-27T17:17:59.387Z,86.80
2018-11-27T17:20:41.318Z,87.20
2018-11-27T17:23:22.841Z,87.20
2018-11-27T17:26:04.431Z,87.90
2018-11-27T17:28:45.917Z,87.90
2018-11-27T17:31:28.335Z,87.50
2018-11-27T17:34:09.347Z,87.70
2018-11-27T17:36:51.987Z,87.30
2018-11-27T17:39:33.396Z,86.70
2018-11-27T17:42:14.883Z,86.10
2018-11-27T17:44:56.371Z,85.80
2018-11-27T17:47:38.163Z,84.30
2018-11-27T17:50:19.677Z,83.10
2018-11-27T17:53:01.342Z,82.30
2018-11-27T17:55:43.647Z,81.50
2018-11-27T17:58:24.825Z,80.00
2018-11-27T18:01:06.312Z,79.80
2018-11-27T18:03:48.003Z,80.10
2018-11-27T18:06:30.413Z,79.70
2018-11-27T18:09:11.386Z,79.90
2018-11-27T18:11:52.893Z,79.90
2018-11-27T18:14:34.586Z,80.10
2018-11-27T18:17:16.356Z,80.60
2018-11-27T18:19:58.151Z,80.90
2018-11-27T18:22:39.843Z,81.20
2018-11-27T18:25:21.736Z,81.40
2018-11-27T18:28:03.226Z,82.10
2018-11-27T18:30:45.703Z,82.60
2018-11-27T18:33:26.323Z,83.50
2018-11-27T18:42:23.800Z,84.80
2018-11-27T18:45:05.950Z,84.50
2018-11-27T18:47:47.002Z,84.80
2018-11-27T18:50:28.772Z,85.40
2018-11-27T18:53:10.260Z,86.00
2018-11-27T18:55:52.223Z,86.10
2018-11-27T18:58:34.074Z,86.80
2018-11-27T19:01:15.260Z,86.50
2018-11-27T19:03:56.920Z,87.10
2018-11-27T19:06:39.022Z,87.70
2018-11-27T19:09:20.351Z,87.40
2018-11-27T19:12:01.790Z,87.80
2018-11-27T19:14:43.376Z,87.50
2018-11-27T19:17:24.994Z,88.20
2018-11-27T19:20:06.760Z,88.30
2018-11-27T19:22:48.554Z,88.50
2018-11-27T19:25:30.347Z,88.50
2018-11-27T19:28:12.036Z,88.50
2018-11-27T19:30:53.857Z,88.70
2018-11-27T19:33:35.624Z,89.20
2018-11-27T19:36:17.930Z,88.90
2018-11-27T19:38:59.009Z,89.60
2018-11-27T19:41:40.724Z,89.60
2018-11-27T19:44:23.416Z,89.60
2018-11-27T19:47:05.040Z,90.00
2018-11-27T19:49:47.103Z,90.00
2018-11-27T19:52:28.618Z,90.00
2018-11-27T19:55:09.977Z,90.00
2018-11-27T19:57:51.665Z,90.00
2018-11-27T20:00:33.049Z,90.00
2018-11-27T20:03:14.566Z,90.00
2018-11-27T20:05:56.331Z,89.90
2018-11-27T20:08:38.041Z,89.70
2018-11-27T20:11:19.946Z,90.10
2018-11-27T20:14:01.740Z,89.80
2018-11-27T20:16:42.912Z,89.60
2018-11-27T20:19:25.691Z,89.70
2018-11-27T20:22:07.499Z,90.00
2018-11-27T20:24:50.242Z,89.70
2018-11-27T20:27:31.497Z,90.00
2018-11-27T20:30:13.802Z,90.00
2018-11-27T20:35:43.024Z,89.60
2018-11-27T20:38:24.146Z,89.30
2018-11-27T20:41:05.686Z,89.10
2018-11-27T20:43:47.506Z,88.80
2018-11-27T20:46:29.170Z,88.60
2018-11-27T20:49:10.714Z,88.10
2018-11-27T20:51:53.200Z,88.10
2018-11-27T20:54:35.677Z,88.00
2018-11-27T20:57:17.473Z,87.90
2018-11-27T20:59:59.417Z,88.00
2018-11-27T21:02:40.958Z,87.80
2018-11-27T21:05:22.728Z,87.90
2018-11-27T21:08:04.442Z,88.50
2018-11-27T21:10:45.863Z,88.40
2018-11-27T21:13:27.924Z,88.50
2018-11-27T21:16:09.616Z,88.00
2018-11-27T21:18:51.412Z,88.10
2018-11-27T21:21:33.818Z,88.30
2018-11-27T21:24:15.000Z,88.40
2018-11-27T21:26:56.485Z,88.10
2018-11-27T21:29:37.970Z,89.60
2018-11-27T21:32:19.793Z,89.10
2018-11-27T22:15:40.466Z,89.00
2018-11-27T22:18:22.746Z,89.10
2018-11-27T22:21:03.823Z,89.20
2018-11-27T22:23:45.898Z,89.50
2018-11-27T22:26:27.137Z,89.50
2018-11-27T22:29:09.101Z,89.50
2018-11-27T22:31:50.791Z,89.20
2018-11-27T22:34:32.383Z,89.00
2018-11-27T22:37:13.992Z,88.60
2018-11-27T22:39:55.869Z,88.00
2018-11-27T22:42:38.089Z,87.60
2018-11-27T22:45:19.451Z,87.10
2018-11-27T22:48:00.987Z,87.60
2018-11-27T22:50:42.810Z,86.20
2018-11-27T22:53:24.561Z,87.00
2018-11-27T22:56:06.038Z,85.80
2018-11-27T22:58:47.977Z,85.60
2018-11-27T23:01:33.700Z,85.30
2018-11-27T23:04:15.606Z,85.30
2018-11-27T23:06:56.667Z,85.30
2018-11-27T23:09:38.259Z,85.20
2018-11-27T23:12:19.950Z,85.20
2018-11-27T23:15:01.556Z,85.00
2018-11-27T23:17:43.738Z,85.80
2018-11-27T23:20:24.821Z,85.00
2018-11-27T23:23:06.515Z,85.50
2018-11-27T23:25:47.992Z,84.90
2018-11-27T23:28:30.026Z,85.10
2018-11-27T23:31:11.588Z,86.00
2018-11-27T23:33:53.920Z,85.40
2018-11-27T23:36:35.474Z,85.20
2018-11-27T23:39:17.168Z,85.20
2018-11-27T23:41:58.957Z,85.10
2018-11-27T23:44:40.547Z,85.00
2018-11-27T23:47:22.140Z,85.10
2018-11-27T23:50:03.724Z,85.20
2018-11-27T23:52:45.415Z,85.40
2018-11-27T23:55:26.803Z,85.60
2018-11-27T23:58:08.490Z,85.60
